Time;durP1;ratioP1;P1;durP2;ratioP2;P2;SDS_P1;SDS_P2;PMS_P1;PMS_P2;Temp;Humidity;BMP_temperature;BMP_pressure;BME280_temperature;BME280_humidity;BME280_pressure;Samples;Min_cycle;Max_cycle;Signal;HPM_P1;HPM_P2
2021/04/19 00:01:58;;;;;;;78.53;46.38;;;;;;;8.89;71.18;100551.47;5068915;27;97016;-80
2021/04/19 00:04:24;;;;;;;81.32;46.58;;;;;;;8.90;71.16;100552.34;5035246;27;101436;-76
2021/04/19 00:06:49;;;;;;;80.68;48.50;;;;;;;8.84;70.81;100553.34;5068933;27;97659;-76
2021/04/19 00:09:15;;;;;;;78.05;47.17;;;;;;;8.82;71.11;100549.91;5034176;27;96827;-76
2021/04/19 00:11:40;;;;;;;73.35;45.63;;;;;;;8.81;70.95;100548.19;5035278;27;96904;-76
2021/04/19 00:14:06;;;;;;;78.93;47.25;;;;;;;8.90;70.72;100548.00;5051128;27;101734;-77
2021/04/19 00:16:32;;;;;;;81.28;46.45;;;;;;;8.86;70.84;100548.09;5035186;27;99775;-76
2021/04/19 00:18:58;;;;;;;83.47;49.05;;;;;;;8.86;71.01;100541.09;5034194;27;97005;-80
2021/04/19 00:21:23;;;;;;;76.32;47.92;;;;;;;8.82;71.22;100544.69;5042653;27;97207;-76
2021/04/19 00:23:49;;;;;;;80.50;47.55;;;;;;;8.76;71.58;100537.84;5051318;27;100911;-76
2021/04/19 00:26:15;;;;;;;83.22;47.83;;;;;;;8.69;71.81;100544.09;5051358;27;97719;-76
2021/04/19 00:28:40;;;;;;;82.60;48.03;;;;;;;8.64;71.85;100548.59;5068903;27;97077;-76
2021/04/19 00:31:07;;;;;;;85.75;49.83;;;;;;;8.71;71.34;100544.06;5033742;27;96962;-76
2021/04/19 00:33:33;;;;;;;85.47;50.75;;;;;;;8.74;71.63;100538.75;5051719;27;99813;-77
2021/04/19 00:35:58;;;;;;;85.28;49.70;;;;;;;8.67;71.68;100540.66;5050606;27;101274;-80
2021/04/19 00:38:24;;;;;;;79.30;47.83;;;;;;;8.64;72.08;100534.63;5051239;27;96905;-76
2021/04/19 00:40:51;;;;;;;83.50;49.53;;;;;;;8.63;72.01;100538.13;5069404;27;97178;-77
2021/04/19 00:43:17;;;;;;;82.93;47.97;;;;;;;8.66;71.72;100531.06;5033572;27;101116;-76
2021/04/19 00:45:43;;;;;;;78.70;47.35;;;;;;;8.70;71.46;100537.97;5038192;27;101197;-76
2021/04/19 00:48:09;;;;;;;78.30;46.33;;;;;;;8.72;71.35;100546.63;5063469;27;97419;-76
2021/04/19 00:50:35;;;;;;;79.03;45.55;;;;;;;8.76;71.53;100548.31;5068725;27;98167;-76
2021/04/19 00:53:02;;;;;;;82.60;47.58;;;;;;;8.66;71.67;100540.69;5046923;27;101720;-76
2021/04/19 00:55:27;;;;;;;80.93;48.47;;;;;;;8.64;71.55;100539.84;5059639;27;98021;-76
2021/04/19 00:57:53;;;;;;;73.40;45.30;;;;;;;8.64;71.84;100548.59;5068873;27;97063;-77
2021/04/19 01:00:32;;;;;;;78.05;45.65;;;;;;;8.60;71.95;100555.63;5046915;27;97200;-77
2021/04/19 01:02:58;;;;;;;77.97;45.28;;;;;;;8.59;71.73;100548.66;5050510;27;101036;-80
2021/04/19 01:05:52;;;;;;;80.18;46.05;;;;;;;8.57;72.15;100552.22;5051898;27;101588;-76
2021/04/19 01:08:18;;;;;;;77.55;46.25;;;;;;;8.53;71.85;100556.66;5057415;27;97016;-76
2021/04/19 01:10:45;;;;;;;77.25;46.50;;;;;;;8.50;71.84;100558.50;5051464;27;96859;-76
2021/04/19 01:13:11;;;;;;;79.53;45.97;;;;;;;8.43;72.12;100560.34;5033103;27;101491;-76
2021/04/19 01:15:37;;;;;;;77.32;45.92;;;;;;;8.51;72.38;100554.97;5050755;27;101157;-76
2021/04/19 01:18:05;;;;;;;79.55;46.00;;;;;;;8.51;71.87;100550.59;5050463;27;96697;-77
2021/04/19 01:20:42;;;;;;;75.43;45.40;;;;;;;8.50;71.64;100556.72;5034721;27;97048;-76
2021/04/19 01:23:08;;;;;;;77.13;45.53;;;;;;;8.49;71.98;100557.59;5018220;27;100930;-76
2021/04/19 01:25:35;;;;;;;72.57;43.78;;;;;;;8.50;72.00;100556.72;5034504;27;101143;-77
2021/04/19 01:28:01;;;;;;;67.78;43.80;;;;;;;8.47;72.10;100555.94;5050013;27;97187;-77
2021/04/19 01:30:36;;;;;;;68.97;43.45;;;;;;;8.43;72.45;100549.03;5032509;27;97231;-76
2021/04/19 01:33:03;;;;;;;71.40;43.25;;;;;;;8.46;72.08;100549.81;5060806;27;98072;-77
2021/04/19 01:35:29;;;;;;;68.68;41.40;;;;;;;8.47;71.96;100545.47;5047468;27;101046;-76
2021/04/19 01:37:56;;;;;;;65.95;40.28;;;;;;;8.44;72.03;100546.41;5029837;27;97013;-76
2021/04/19 01:40:23;;;;;;;61.67;39.35;;;;;;;8.50;72.12;100542.78;5033887;27;98562;-76
2021/04/19 01:42:49;;;;;;;66.28;39.38;;;;;;;8.51;71.58;100541.88;5030330;27;102109;-78
2021/04/19 01:45:17;;;;;;;66.10;39.15;;;;;;;8.48;71.70;100537.56;5046565;27;101235;-76
2021/04/19 01:47:44;;;;;;;63.78;35.70;;;;;;;8.41;71.53;100546.47;5018536;27;96879;-76
2021/04/19 01:50:16;;;;;;;57.70;36.50;;;;;;;8.39;72.08;100541.25;5036734;27;96877;-76
2021/04/19 01:52:42;;;;;;;56.30;35.05;;;;;;;8.37;71.72;100536.91;5037268;27;101456;-76
2021/04/19 01:55:11;;;;;;;55.63;35.00;;;;;;;8.31;71.79;100534.44;5053842;27;99273;-76
2021/04/19 01:57:41;;;;;;;54.78;34.25;;;;;;;8.27;71.53;100536.25;5038603;27;97198;-76
2021/04/19 02:00:09;;;;;;;52.47;33.63;;;;;;;8.25;71.58;100538.03;5049214;27;97447;-76
2021/04/19 02:03:04;;;;;;;53.78;33.55;;;;;;;8.23;71.62;100541.56;5067714;27;97837;-76
2021/04/19 02:05:51;;;;;;;53.38;33.55;;;;;;;8.26;71.41;100537.16;5037267;27;100861;-77
2021/04/19 02:09:01;;;;;;;53.05;32.95;;;;;;;8.26;71.37;100536.28;5070148;27;97136;-76
2021/04/19 02:11:43;;;;;;;53.40;32.47;;;;;;;8.26;71.46;100533.66;5006510;27;97008;-76
2021/04/19 02:14:30;;;;;;;54.40;32.92;;;;;;;8.21;71.48;100535.53;5036749;27;101579;-77
2021/04/19 02:17:00;;;;;;;55.85;34.08;;;;;;;8.20;71.24;100537.25;5037262;27;101032;-74
2021/04/19 02:19:41;;;;;;;54.90;33.78;;;;;;;8.27;71.56;100538.03;5071102;27;96742;-75
2021/04/19 02:22:45;;;;;;;59.20;35.30;;;;;;;8.26;71.79;100533.66;5053913;27;96999;-75
2021/04/19 02:25:25;;;;;;;54.70;34.75;;;;;;;8.23;71.49;100539.84;5000347;27;100962;-75
2021/04/19 02:27:59;;;;;;;61.42;35.88;;;;;;;8.21;71.86;100532.91;5043177;27;101560;-75
2021/04/19 02:30:31;;;;;;;55.17;35.10;;;;;;;8.20;71.96;100534.66;5051151;27;96718;-75
2021/04/19 02:32:58;;;;;;;56.15;34.75;;;;;;;8.22;71.75;100532.88;5053881;27;96830;-73
2021/04/19 02:35:25;;;;;;;54.97;34.15;;;;;;;8.31;72.01;100526.59;5052917;27;101697;-75
2021/04/19 02:37:59;;;;;;;56.92;35.72;;;;;;;8.36;71.29;100528.22;5037675;27;101541;-79
2021/04/19 02:40:28;;;;;;;62.90;39.58;;;;;;;8.38;71.05;100529.09;5041137;27;97351;-75
2021/04/19 02:42:56;;;;;;;62.38;35.90;;;;;;;8.42;71.22;100531.63;5053566;27;97022;-75
2021/04/19 02:45:22;;;;;;;63.00;39.45;;;;;;;8.39;71.35;100524.69;5052665;27;97932;-75
2021/04/19 02:47:58;;;;;;;66.18;39.70;;;;;;;8.33;71.68;100523.03;5024967;27;101048;-79
2021/04/19 02:50:35;;;;;;;72.45;40.85;;;;;;;8.25;71.49;100516.25;5019569;27;97344;-75
2021/04/19 02:53:01;;;;;;;62.20;37.90;;;;;;;8.25;71.66;100526.72;4999094;27;96997;-78
2021/04/19 02:55:29;;;;;;;66.10;39.20;;;;;;;8.18;71.73;100515.53;5032591;27;101766;-75
2021/04/19 02:58:04;;;;;;;64.85;38.08;;;;;;;8.16;72.09;100519.94;5015913;27;101167;-75
2021/04/19 03:00:41;;;;;;;63.60;39.17;;;;;;;8.26;71.79;100520.59;5049933;27;96807;-75
2021/04/19 03:03:19;;;;;;;60.25;37.97;;;;;;;8.26;71.30;100524.09;5032713;27;97056;-75
2021/04/19 03:05:45;;;;;;;62.58;38.97;;;;;;;8.26;71.40;100512.75;5032735;27;99647;-75
2021/04/19 03:08:15;;;;;;;60.40;38.38;;;;;;;8.29;71.44;100516.19;5015297;27;101444;-75
2021/04/19 03:10:47;;;;;;;58.42;36.65;;;;;;;8.30;71.50;100514.41;5016083;27;96838;-75
2021/04/19 03:13:14;;;;;;;62.70;38.38;;;;;;;8.30;71.18;100517.88;5032391;27;97445;-75
2021/04/19 03:15:41;;;;;;;63.35;36.03;;;;;;;8.34;71.42;100510.81;5032777;27;97423;-75
2021/04/19 03:18:12;;;;;;;54.97;35.67;;;;;;;8.32;71.12;100508.25;5015386;27;101698;-75
2021/04/19 03:21:22;;;;;;;59.03;36.03;;;;;;;8.30;71.20;100515.28;5033836;27;97445;-75
2021/04/19 03:24:09;;;;;;;62.47;37.17;;;;;;;8.13;71.54;100497.31;5031983;27;96755;-76
2021/04/19 03:26:55;;;;;;;61.13;36.63;;;;;;;8.14;71.85;100512.13;5032316;27;97186;-74
2021/04/19 03:29:25;;;;;;;60.28;37.53;;;;;;;8.13;72.03;100504.31;5031511;27;101175;-76
2021/04/19 03:32:06;;;;;;;65.72;37.88;;;;;;;8.08;72.21;100508.75;5033465;27;96898;-78
2021/04/19 03:34:36;;;;;;;63.22;40.35;;;;;;;8.08;72.09;100503.53;5049464;27;96914;-75
2021/04/19 03:37:10;;;;;;;65.22;41.10;;;;;;;8.09;71.56;100502.66;5031605;27;100861;-79
2021/04/19 03:39:41;;;;;;;69.47;41.72;;;;;;;8.01;72.00;100497.59;5016952;27;97952;-75
2021/04/19 03:42:07;;;;;;;65.32;43.03;;;;;;;7.99;72.27;100498.50;5045351;27;96729;-75
2021/04/19 03:44:38;;;;;;;58.72;38.08;;;;;;;7.93;72.70;100496.88;5023933;27;97125;-75
2021/04/19 03:47:04;;;;;;;61.83;40.13;;;;;;;7.91;72.80;100488.19;5016752;27;101687;-78
2021/04/19 03:49:54;;;;;;;63.17;39.05;;;;;;;8.02;72.14;100491.44;5074664;27;99219;-75
2021/04/19 03:52:26;;;;;;;60.38;38.28;;;;;;;7.99;72.13;100490.66;5052014;27;96733;-75
2021/04/19 03:54:52;;;;;;;63.10;38.87;;;;;;;8.05;72.44;100491.38;5051870;27;96942;-75
2021/04/19 03:57:23;;;;;;;58.67;36.80;;;;;;;8.02;72.37;100490.59;5051310;27;101687;-77
2021/04/19 03:59:57;;;;;;;54.22;35.25;;;;;;;8.00;72.01;100493.25;5041168;27;101239;-75
2021/04/19 04:02:35;;;;;;;54.17;33.50;;;;;;;7.91;72.85;100491.69;5055404;27;96926;-75
2021/04/19 04:05:06;;;;;;;53.83;33.42;;;;;;;7.97;72.49;100497.66;5045807;27;96965;-75
2021/04/19 04:07:51;;;;;;;52.13;34.50;;;;;;;7.95;72.43;100489.88;5057289;27;97006;-75
2021/04/19 04:10:21;;;;;;;50.03;33.15;;;;;;;8.05;71.83;100490.53;5036559;27;101665;-75
2021/04/19 04:12:48;;;;;;;45.95;31.35;;;;;;;8.06;71.77;100487.03;5051592;27;96697;-75
2021/04/19 04:15:17;;;;;;;50.22;32.42;;;;;;;8.02;72.15;100494.06;5044073;27;97184;-75
2021/04/19 04:17:46;;;;;;;53.17;33.92;;;;;;;8.02;71.94;100493.22;5051530;27;101705;-75
2021/04/19 04:20:23;;;;;;;51.00;32.85;;;;;;;8.16;71.80;100483.31;5050038;27;101091;-75
2021/04/19 04:23:03;;;;;;;53.90;33.20;;;;;;;8.18;71.46;100473.69;5074424;27;96575;-78
2021/04/19 04:25:34;;;;;;;53.28;33.13;;;;;;;8.25;71.51;100477.03;5073620;27;97804;-76
2021/04/19 04:28:03;;;;;;;49.55;31.85;;;;;;;8.36;71.02;100475.91;5034721;27;98754;-78
2021/04/19 04:30:34;;;;;;;50.10;31.58;;;;;;;8.37;71.32;100476.75;5035553;27;100776;-75
2021/04/19 04:33:15;;;;;;;57.67;34.33;;;;;;;8.44;70.61;100478.38;5049022;27;97321;-76
2021/04/19 04:35:46;;;;;;;54.55;32.70;;;;;;;8.49;70.51;100473.88;5038755;27;96785;-76
2021/04/19 04:38:27;;;;;;;50.30;32.38;;;;;;;8.53;70.15;100474.69;5055211;27;101247;-76
2021/04/19 04:40:55;;;;;;;53.97;33.92;;;;;;;8.57;70.22;100474.56;5054463;27;101294;-75
2021/04/19 04:43:23;;;;;;;51.38;33.35;;;;;;;8.52;70.27;100472.97;5053666;27;97200;-74
2021/04/19 04:45:50;;;;;;;52.47;33.38;;;;;;;8.48;70.18;100476.56;5054392;27;96979;-75
2021/04/19 04:48:19;;;;;;;50.53;33.28;;;;;;;8.46;70.34;100473.94;5052866;27;98567;-75
2021/04/19 04:50:50;;;;;;;50.53;33.08;;;;;;;8.47;70.31;100473.09;5072390;27;97722;-75
2021/04/19 04:53:23;;;;;;;57.97;35.42;;;;;;;8.50;70.03;100474.78;5046941;27;97200;-75
2021/04/19 04:55:49;;;;;;;58.75;34.10;;;;;;;8.48;70.60;100476.56;5045401;27;97335;-76
2021/04/19 04:58:15;;;;;;;55.30;35.28;;;;;;;8.45;70.64;100477.47;5033204;27;99325;-75
2021/04/19 05:00:42;;;;;;;54.47;33.05;;;;;;;8.49;70.59;100473.88;5048429;27;97578;-75
2021/04/19 05:03:14;;;;;;;54.97;34.80;;;;;;;8.45;70.72;100474.84;5045996;27;97314;-75
2021/04/19 05:05:40;;;;;;;54.13;33.72;;;;;;;8.46;70.40;100486.19;5050023;27;96996;-75
2021/04/19 05:08:09;;;;;;;54.78;32.38;;;;;;;8.33;70.86;100482.97;5032718;27;100903;-78
2021/04/19 05:10:35;;;;;;;52.88;33.92;;;;;;;8.38;70.94;100486.34;5036031;27;97902;-77
2021/04/19 05:13:01;;;;;;;53.70;34.20;;;;;;;8.35;71.06;100496.88;5051091;27;96753;-75
2021/04/19 05:15:26;;;;;;;55.88;36.45;;;;;;;8.22;71.10;100496.25;5084136;27;96832;-75
2021/04/19 05:17:52;;;;;;;54.40;33.95;;;;;;;8.27;71.64;100498.78;5050253;27;101481;-75
2021/04/19 05:20:18;;;;;;;54.75;33.50;;;;;;;8.27;71.40;100504.03;5052262;27;97858;-75
2021/04/19 05:22:44;;;;;;;50.50;34.30;;;;;;;8.31;71.05;100503.91;5053728;27;96789;-75
2021/04/19 05:25:11;;;;;;;53.97;34.00;;;;;;;8.30;71.05;100502.19;5055321;27;97020;-76
2021/04/19 05:27:37;;;;;;;59.47;36.08;;;;;;;8.31;71.43;100501.28;5036861;27;101412;-75
2021/04/19 05:30:04;;;;;;;58.85;35.67;;;;;;;8.30;71.42;100503.94;5055821;27;98169;-78
2021/04/19 05:32:29;;;;;;;61.08;34.67;;;;;;;8.29;71.53;100516.19;5057311;27;97039;-75
2021/04/19 05:35:00;;;;;;;56.58;34.35;;;;;;;8.26;71.71;100515.34;5045031;27;97492;-75
2021/04/19 05:37:26;;;;;;;55.53;34.50;;;;;;;8.27;71.42;100520.56;5054259;27;101262;-76
2021/04/19 05:39:51;;;;;;;57.67;33.33;;;;;;;8.28;71.72;100518.81;5070045;27;98487;-75
2021/04/19 05:42:18;;;;;;;55.38;33.50;;;;;;;8.28;71.44;100518.81;5074118;27;97355;-75
2021/04/19 05:44:44;;;;;;;50.80;31.83;;;;;;;8.30;71.30;100517.88;5040982;27;96955;-75
2021/04/19 05:47:11;;;;;;;50.22;33.40;;;;;;;8.22;71.76;100514.56;5038096;27;99806;-75
2021/04/19 05:49:37;;;;;;;58.95;34.00;;;;;;;8.24;71.55;100512.78;5044682;27;101179;-76
2021/04/19 05:52:05;;;;;;;54.63;34.17;;;;;;;8.29;71.28;100510.06;5065140;27;97246;-79
2021/04/19 05:54:31;;;;;;;55.65;35.00;;;;;;;8.25;71.48;100517.13;5067585;27;96856;-75
2021/04/19 05:57:08;;;;;;;54.03;33.55;;;;;;;8.23;71.67;100518.03;5052319;27;101202;-75
2021/04/19 05:59:58;;;;;;;57.60;36.58;;;;;;;8.29;71.56;100508.31;5066983;27;97935;-75
2021/04/19 06:02:30;;;;;;;56.75;35.40;;;;;;;8.36;71.24;100512.53;5064155;27;97096;-75
2021/04/19 06:05:04;;;;;;;49.72;34.45;;;;;;;8.42;71.16;100503.72;5066376;27;96748;-74
2021/04/19 06:07:38;;;;;;;59.70;33.70;;;;;;;8.49;71.11;100502.66;5048611;27;101538;-75
2021/04/19 06:10:24;;;;;;;53.65;34.80;;;;;;;8.48;70.82;100505.31;5048618;27;97073;-75
2021/04/19 06:13:03;;;;;;;52.63;33.90;;;;;;;8.57;71.08;100507.72;5033639;27;96858;-75
2021/04/19 06:15:29;;;;;;;57.47;33.78;;;;;;;8.54;70.74;100511.28;5029902;27;96890;-76
2021/04/19 06:17:56;;;;;;;51.35;32.97;;;;;;;8.56;70.46;100508.63;5044055;27;98487;-75
2021/04/19 06:20:21;;;;;;;53.47;33.17;;;;;;;8.58;71.00;100509.44;5044893;27;101152;-75
2021/04/19 06:22:51;;;;;;;52.60;34.25;;;;;;;8.64;70.78;100511.06;5047149;27;96795;-76
2021/04/19 06:25:18;;;;;;;48.65;33.05;;;;;;;8.71;70.49;100508.28;5046895;27;96914;-76
2021/04/19 06:27:43;;;;;;;56.47;33.72;;;;;;;8.75;70.32;100504.69;5030001;27;101226;-75
2021/04/19 06:30:21;;;;;;;58.42;33.60;;;;;;;8.91;70.75;100499.09;5046374;27;101147;-76
2021/04/19 06:32:49;;;;;;;51.88;32.75;;;;;;;9.19;69.59;100507.09;5049469;27;98196;-76
2021/04/19 06:35:17;;;;;;;57.55;36.55;;;;;;;9.68;68.14;100498.81;5066008;27;96885;-76
2021/04/19 06:37:49;;;;;;;56.10;32.33;;;;;;;12.63;61.15;100495.13;5050571;27;101120;-76
2021/04/19 06:40:15;;;;;;;54.58;31.67;;;;;;;14.45;56.81;100480.19;5052637;27;98351;-76
2021/04/19 06:42:40;;;;;;;44.38;30.65;;;;;;;15.40;53.94;100480.81;5048930;27;96987;-76
2021/04/19 06:45:07;;;;;;;44.03;30.02;;;;;;;16.74;51.52;100475.31;5052407;27;97140;-78
2021/04/19 06:47:35;;;;;;;81.43;32.47;;;;;;;17.48;47.97;100462.19;5037546;27;100305;-76
2021/04/19 06:50:05;;;;;;;49.10;30.90;;;;;;;17.83;47.95;100452.97;5069928;27;97879;-77
2021/04/19 06:52:32;;;;;;;43.08;29.10;;;;;;;18.64;46.73;100452.22;5067684;27;96862;-77
2021/04/19 06:54:58;;;;;;;41.78;27.80;;;;;;;19.52;44.83;100447.25;5068627;27;97141;-75
2021/04/19 06:57:25;;;;;;;38.45;28.13;;;;;;;20.19;43.35;100454.09;5050034;27;98929;-76
2021/04/19 06:59:52;;;;;;;39.22;28.48;;;;;;;20.26;42.49;100453.56;5051100;27;101304;-76
2021/04/19 07:02:21;;;;;;;38.88;26.05;;;;;;;18.34;45.84;100455.09;5065191;27;96957;-77
2021/04/19 07:04:51;;;;;;;43.08;27.77;;;;;;;16.72;48.61;100474.53;5047925;27;97417;-77
2021/04/19 07:07:22;;;;;;;38.42;29.85;;;;;;;16.08;50.25;100480.78;5060594;27;98203;-78
2021/04/19 07:09:51;;;;;;;37.20;30.17;;;;;;;16.62;49.29;100483.13;5059393;27;97370;-76
2021/04/19 07:12:19;;;;;;;35.67;26.15;;;;;;;15.86;50.97;100477.59;5036470;27;96902;-77
2021/04/19 07:14:49;;;;;;;37.72;26.83;;;;;;;15.30;52.07;100476.91;5057670;27;98176;-76
2021/04/19 07:17:14;;;;;;;41.85;28.40;;;;;;;14.82;52.93;100476.66;5027824;27;101442;-76
2021/04/19 07:19:40;;;;;;;36.75;26.75;;;;;;;14.63;53.68;100475.84;5050292;27;98735;-77
2021/04/19 07:22:06;;;;;;;37.25;26.75;;;;;;;14.26;54.54;100467.03;5049831;27;96829;-76
2021/04/19 07:24:34;;;;;;;39.90;28.10;;;;;;;14.29;54.86;100476.59;5068405;27;96849;-79
2021/04/19 07:27:01;;;;;;;41.80;27.05;;;;;;;14.13;55.61;100477.28;5033136;27;101274;-75
2021/04/19 07:29:26;;;;;;;37.58;25.65;;;;;;;13.94;55.82;100472.00;5036201;27;101254;-75
2021/04/19 07:31:54;;;;;;;41.05;26.77;;;;;;;14.10;55.60;100473.94;5029157;27;97627;-76
2021/04/19 07:34:28;;;;;;;37.88;26.95;;;;;;;14.07;55.81;100461.72;5057506;27;97566;-76
2021/04/19 07:37:02;;;;;;;40.13;26.98;;;;;;;14.08;55.84;100462.56;5067465;27;98505;-76
2021/04/19 07:39:30;;;;;;;41.45;28.00;;;;;;;13.76;57.10;100465.78;5045970;27;101566;-76
2021/04/19 07:41:58;;;;;;;40.35;26.10;;;;;;;13.69;57.61;100469.59;5046485;27;97241;-75
2021/04/19 07:44:43;;;;;;;39.63;27.50;;;;;;;13.52;57.41;100466.84;5032247;27;97234;-75
2021/04/19 07:47:32;;;;;;;36.75;24.90;;;;;;;13.44;57.95;100458.41;5067434;27;101369;-75
2021/04/19 07:50:18;;;;;;;37.67;25.35;;;;;;;13.57;57.40;100460.44;5068810;27;97928;-77
2021/04/19 07:52:56;;;;;;;43.15;28.00;;;;;;;13.83;56.99;100458.44;5086286;27;97333;-75
2021/04/19 07:55:34;;;;;;;44.45;29.38;;;;;;;13.94;57.39;100445.63;5053242;27;96906;-76
2021/04/19 07:58:00;;;;;;;43.35;27.48;;;;;;;14.19;56.84;100439.19;5086811;27;97920;-76
2021/04/19 08:00:31;;;;;;;38.47;26.33;;;;;;;14.30;56.27;100438.69;5047951;27;101327;-75
2021/04/19 08:03:07;;;;;;;44.70;28.05;;;;;;;14.84;55.51;100448.38;5031384;27;96887;-74
2021/04/19 08:05:40;;;;;;;43.50;27.77;;;;;;;16.28;52.84;100443.47;5045631;27;97603;-75
2021/04/19 08:08:07;;;;;;;41.53;25.63;;;;;;;16.79;50.97;100437.97;5063475;27;98454;-76
2021/04/19 08:10:35;;;;;;;45.70;26.10;;;;;;;17.22;50.06;100438.13;5042542;27;97994;-74
2021/04/19 08:13:03;;;;;;;33.75;23.88;;;;;;;17.45;48.96;100435.84;5041043;27;97341;-75
2021/04/19 08:15:29;;;;;;;38.05;24.95;;;;;;;16.98;49.98;100438.59;5064385;27;96938;-75
2021/04/19 08:18:07;;;;;;;35.15;24.75;;;;;;;16.27;50.93;100436.47;5064164;27;98240;-75
2021/04/19 08:20:33;;;;;;;39.80;24.98;;;;;;;16.24;51.59;100439.28;5047867;27;101138;-73
2021/04/19 08:23:04;;;;;;;36.22;24.70;;;;;;;16.48;50.97;100442.34;5056668;27;96800;-77
2021/04/19 08:25:41;;;;;;;37.40;24.23;;;;;;;16.48;51.21;100434.41;5042816;27;97084;-74
2021/04/19 08:28:13;;;;;;;33.13;23.45;;;;;;;16.07;51.39;100434.91;5034117;27;101451;-74
2021/04/19 08:30:41;;;;;;;35.97;23.85;;;;;;;15.74;51.87;100442.06;5068738;27;97385;-73
2021/04/19 08:33:07;;;;;;;37.15;24.58;;;;;;;15.56;52.08;100433.25;5044111;27;98387;-78
2021/04/19 08:35:33;;;;;;;37.55;25.45;;;;;;;15.18;52.73;100436.09;5062699;27;97124;-74
2021/04/19 08:38:00;;;;;;;41.72;24.35;;;;;;;14.91;53.36;100444.50;5038319;27;97971;-75
2021/04/19 08:40:28;;;;;;;37.08;23.10;;;;;;;14.79;54.13;100444.25;5088263;27;98506;-75
2021/04/19 08:42:55;;;;;;;35.53;23.55;;;;;;;14.77;53.98;100446.13;5069770;27;97329;-74
2021/04/19 08:45:22;;;;;;;41.20;23.85;;;;;;;14.56;54.58;100440.97;5069337;27;96780;-76
2021/04/19 08:47:48;;;;;;;40.08;22.83;;;;;;;14.59;54.66;100438.16;5086864;27;98273;-76
2021/04/19 08:50:21;;;;;;;40.65;25.02;;;;;;;14.48;55.52;100438.63;5060845;27;101701;-76
2021/04/19 08:52:46;;;;;;;35.70;23.67;;;;;;;14.15;55.32;100440.25;5056348;27;97508;-75
2021/04/19 08:55:14;;;;;;;37.00;24.50;;;;;;;13.97;55.69;100441.97;5048170;27;97005;-75
2021/04/19 08:57:44;;;;;;;33.90;23.08;;;;;;;13.96;55.35;100446.41;5047710;27;102123;-76
2021/04/19 09:00:11;;;;;;;36.60;24.80;;;;;;;13.90;56.15;100446.66;5072112;27;97743;-75
2021/04/19 09:02:37;;;;;;;38.20;22.67;;;;;;;13.97;56.10;100445.47;5055771;27;96915;-76
2021/04/19 09:05:09;;;;;;;35.17;24.42;;;;;;;14.07;55.96;100439.75;5055608;27;97315;-75
2021/04/19 09:07:35;;;;;;;;;;;;;;;14.34;55.66;100440.22;5072983;27;97986;-76
2021/04/19 09:10:01;;;;;;;39.85;23.75;;;;;;;14.96;54.57;100436.34;5072653;27;97962;-75
2021/04/19 09:12:28;;;;;;;41.85;23.58;;;;;;;15.27;53.84;100433.00;5071317;27;97262;-75
2021/04/19 09:15:11;;;;;;;39.42;25.45;;;;;;;15.77;52.67;100424.22;5048002;27;96890;-75
2021/04/19 09:17:38;;;;;;;34.25;22.88;;;;;;;15.96;52.36;100423.19;5070295;27;98509;-75
2021/04/19 09:20:07;;;;;;;36.55;23.58;;;;;;;15.87;52.63;100421.06;5042388;27;101105;-76
2021/04/19 09:22:33;;;;;;;31.35;21.38;;;;;;;15.53;53.16;100421.06;5049288;27;97326;-76
2021/04/19 09:25:01;;;;;;;33.83;23.23;;;;;;;15.52;53.17;100423.78;5048218;27;97242;-77
2021/04/19 09:27:48;;;;;;;31.23;23.30;;;;;;;15.62;53.27;100423.22;5053137;27;101734;-75
2021/04/19 09:30:23;;;;;;;32.78;23.65;;;;;;;15.70;52.88;100425.47;5054767;27;97520;-75
2021/04/19 09:33:04;;;;;;;28.80;21.95;;;;;;;15.53;53.01;100418.41;5090957;27;96784;-76
2021/04/19 09:35:39;;;;;;;42.55;23.35;;;;;;;15.32;53.43;100420.38;5054290;27;96877;-75
2021/04/19 09:38:08;;;;;;;35.63;24.10;;;;;;;15.24;53.95;100413.78;5070795;27;98724;-75
2021/04/19 09:40:47;;;;;;;31.73;22.55;;;;;;;15.35;53.84;100406.13;5070164;27;98331;-75
2021/04/19 09:43:13;;;;;;;37.47;23.40;;;;;;;15.50;53.67;100407.13;5073071;27;97336;-75
2021/04/19 09:45:45;;;;;;;30.33;22.33;;;;;;;15.65;53.59;100402.81;5040400;27;96850;-75
2021/04/19 09:48:29;;;;;;;33.42;22.52;;;;;;;15.82;52.95;100394.84;5072594;27;100980;-78
2021/04/19 09:50:55;;;;;;;31.52;21.38;;;;;;;16.38;51.99;100397.94;5074941;27;97397;-75
2021/04/19 09:53:22;;;;;;;40.00;21.30;;;;;;;16.90;51.01;100394.91;5062604;27;97063;-75
2021/04/19 09:55:47;;;;;;;33.38;21.30;;;;;;;17.00;50.87;100398.75;5075272;27;96883;-75
2021/04/19 09:58:17;;;;;;;29.83;21.02;;;;;;;16.83;50.79;100401.53;5036355;27;102113;-74
2021/04/19 10:00:44;;;;;;;27.48;19.75;;;;;;;16.59;50.52;100393.19;5071510;27;97571;-75
2021/04/19 10:03:10;;;;;;;27.33;20.05;;;;;;;16.68;50.98;100395.31;5046781;27;97345;-78
2021/04/19 10:05:38;;;;;;;27.17;20.35;;;;;;;16.74;50.47;100397.59;5047153;27;97754;-75
2021/04/19 10:08:05;;;;;;;30.48;20.92;;;;;;;17.17;49.72;100381.81;5028878;27;100977;-76
2021/04/19 10:10:31;;;;;;;27.92;18.55;;;;;;;17.54;49.79;100379.56;5070998;27;98061;-76
2021/04/19 10:12:56;;;;;;;27.63;19.17;;;;;;;17.74;49.28;100376.50;5054352;27;97836;-75
2021/04/19 10:15:24;;;;;;;27.30;18.70;;;;;;;17.36;49.06;100378.88;5037373;27;96878;-76
2021/04/19 10:17:50;;;;;;;26.23;17.75;;;;;;;17.64;49.58;100378.03;5054001;27;101614;-73
2021/04/19 10:20:22;;;;;;;31.58;18.60;;;;;;;17.64;49.19;100378.03;5071038;27;97985;-73
2021/04/19 10:23:07;;;;;;;21.80;15.43;;;;;;;17.55;48.58;100374.16;5054430;27;97369;-74
2021/04/19 10:25:34;;;;;;;28.10;16.85;;;;;;;17.37;49.40;100372.66;5071089;27;96837;-73
2021/04/19 10:27:59;;;;;;;22.60;16.35;;;;;;;17.31;49.59;100376.53;5053164;27;101977;-73
2021/04/19 10:30:26;;;;;;;21.10;16.55;;;;;;;16.94;50.08;100370.78;5053803;27;97838;-74
2021/04/19 10:32:51;;;;;;;21.50;16.73;;;;;;;16.59;50.53;100372.00;5054610;27;96797;-74
2021/04/19 10:35:39;;;;;;;30.52;18.38;;;;;;;16.35;50.97;100364.53;5089313;27;96892;-74
2021/04/19 10:38:06;;;;;;;38.50;19.20;;;;;;;16.48;51.57;100364.66;5054268;27;99512;-73
2021/04/19 10:40:31;;;;;;;28.73;18.13;;;;;;;16.42;51.74;100360.56;5071554;27;97897;-72
2021/04/19 10:43:11;;;;;;;27.30;18.92;;;;;;;16.34;51.63;100360.16;5055184;27;96868;-72
2021/04/19 10:45:38;;;;;;;25.08;18.02;;;;;;;16.33;52.16;100355.81;5090952;27;96692;-72
2021/04/19 10:48:36;;;;;;;22.30;17.63;;;;;;;16.03;52.33;100358.41;5036563;27;100424;-72
2021/04/19 10:51:19;;;;;;;21.48;15.38;;;;;;;16.05;52.54;100357.34;5033084;27;97878;-72
2021/04/19 10:53:45;;;;;;;26.60;17.05;;;;;;;16.21;52.50;100364.44;5071120;27;96775;-73
2021/04/19 10:56:14;;;;;;;26.17;15.98;;;;;;;16.27;52.02;100362.31;5071173;27;96993;-72
2021/04/19 10:58:40;;;;;;;25.20;15.20;;;;;;;16.42;51.32;100357.06;5053385;27;101559;-74
2021/04/19 11:01:06;;;;;;;18.08;14.52;;;;;;;16.41;50.41;100356.22;5071202;27;97295;-74
2021/04/19 11:03:37;;;;;;;19.13;14.38;;;;;;;16.42;50.16;100344.66;5049508;27;97433;-73
2021/04/19 11:06:08;;;;;;;24.63;14.82;;;;;;;16.70;50.67;100340.41;5050269;27;97420;-74
2021/04/19 11:08:54;;;;;;;21.52;14.15;;;;;;;16.88;50.67;100333.19;5053131;27;98516;-73
2021/04/19 11:11:30;;;;;;;18.42;13.38;;;;;;;16.82;50.85;100337.06;5070242;27;98081;-74
2021/04/19 11:14:10;;;;;;;18.77;12.98;;;;;;;16.76;50.68;100334.78;5071286;27;96830;-73
2021/04/19 11:16:37;;;;;;;22.27;14.07;;;;;;;16.70;50.86;100333.31;5054170;27;96939;-73
2021/04/19 11:19:03;;;;;;;18.13;13.55;;;;;;;16.65;50.97;100326.59;5052754;27;101369;-74
2021/04/19 11:21:35;;;;;;;18.83;14.27;;;;;;;16.58;50.65;100333.16;5053990;27;99150;-74
2021/04/19 11:24:12;;;;;;;17.48;13.60;;;;;;;16.47;51.12;100324.06;5052537;27;98234;-73
2021/04/19 11:26:39;;;;;;;19.02;14.02;;;;;;;16.32;51.36;100329.38;5067462;27;97294;-78
2021/04/19 11:29:05;;;;;;;20.88;13.48;;;;;;;16.54;51.67;100324.56;5072446;27;101191;-78